Time;durP1;ratioP1;P1;durP2;ratioP2;P2;SDS_P1;SDS_P2;PMS_P1;PMS_P2;Temp;Humidity;BMP_temperature;BMP_pressure;BME280_temperature;BME280_humidity;BME280_pressure;Samples;Min_cycle;Max_cycle;Signal;HPM_P1;HPM_P2
2021/11/09 00:02:47;;;;;;;2.81;2.60;;;;;;;19.24;57.36;101346.55;;;;-50
2021/11/09 00:06:18;;;;;;;3.81;2.94;;;;;;;19.23;57.38;101349.35;;;;-57
2021/11/09 00:08:50;;;;;;;3.42;2.70;;;;;;;19.22;57.37;101350.56;;;;-57
2021/11/09 00:11:46;;;;;;;2.85;2.41;;;;;;;19.20;57.29;101353.94;;;;-57
2021/11/09 00:14:46;;;;;;;3.33;2.55;;;;;;;19.17;57.30;101353.64;;;;-50
2021/11/09 00:17:46;;;;;;;2.92;2.61;;;;;;;19.17;57.38;101353.85;;;;-50
2021/11/09 00:20:57;;;;;;;4.68;3.25;;;;;;;19.16;57.35;101354.17;;;;-50
2021/11/09 00:33:46;;;;;;;3.81;2.63;;;;;;;19.11;57.33;101361.44;;;;-50
2021/11/09 00:36:46;;;;;;;3.97;2.77;;;;;;;19.10;57.37;101358.27;;;;-57
2021/11/09 00:39:46;;;;;;;2.64;2.44;;;;;;;19.09;57.37;101359.95;;;;-50
2021/11/09 00:42:46;;;;;;;2.81;2.51;;;;;;;19.07;57.38;101362.44;;;;-50
2021/11/09 00:45:46;;;;;;;3.54;2.60;;;;;;;19.06;57.50;101365.89;;;;-50
2021/11/09 00:48:46;;;;;;;3.65;2.71;;;;;;;19.05;57.41;101369.54;;;;-50
2021/11/09 00:56:46;;;;;;;3.59;2.47;;;;;;;19.02;57.36;101370.18;;;;-50
2021/11/09 00:59:46;;;;;;;2.91;2.41;;;;;;;19.01;57.42;101373.88;;;;-50
2021/11/09 01:02:46;;;;;;;2.65;2.45;;;;;;;19.01;57.47;101376.64;;;;-50
2021/11/09 01:05:46;;;;;;;2.56;2.30;;;;;;;18.99;57.47;101373.22;;;;-50
2021/11/09 01:08:46;;;;;;;2.62;2.42;;;;;;;18.97;57.42;101369.03;;;;-50
2021/11/09 01:11:46;;;;;;;2.91;2.54;;;;;;;18.97;57.49;101371.30;;;;-50
2021/11/09 01:14:46;;;;;;;2.93;2.62;;;;;;;18.96;57.51;101368.42;;;;-50
2021/11/09 01:17:46;;;;;;;3.24;2.64;;;;;;;18.95;57.49;101373.28;;;;-50
2021/11/09 01:20:46;;;;;;;2.77;2.51;;;;;;;18.93;57.46;101369.25;;;;-50
2021/11/09 01:23:46;;;;;;;2.69;2.49;;;;;;;18.91;57.54;101364.42;;;;-50
2021/11/09 01:26:46;;;;;;;2.68;2.40;;;;;;;18.91;57.52;101367.98;;;;-58
2021/11/09 01:29:46;;;;;;;2.93;2.65;;;;;;;18.91;57.47;101372.05;;;;-58
2021/11/09 01:32:46;;;;;;;3.05;2.51;;;;;;;18.88;57.60;101370.18;;;;-56
2021/11/09 01:35:46;;;;;;;2.68;2.43;;;;;;;18.87;57.56;101375.61;;;;-56
2021/11/09 01:38:46;;;;;;;2.83;2.57;;;;;;;18.87;57.59;101375.36;;;;-57
2021/11/09 01:41:46;;;;;;;2.61;2.31;;;;;;;18.85;57.54;101366.63;;;;-56
2021/11/09 01:44:46;;;;;;;2.56;2.36;;;;;;;18.84;57.59;101368.09;;;;-56
2021/11/09 02:00:36;;;;;;;2.43;2.23;;;;;;;18.78;57.52;101372.73;;;;-50
2021/11/09 02:03:36;;;;;;;2.98;2.51;;;;;;;18.77;57.58;101377.53;;;;-50
2021/11/09 02:06:36;;;;;;;2.76;2.43;;;;;;;18.76;57.50;101373.30;;;;-50
2021/11/09 02:09:36;;;;;;;2.97;2.47;;;;;;;18.76;57.56;101370.05;;;;-50
2021/11/09 02:12:36;;;;;;;3.31;2.31;;;;;;;18.75;57.53;101377.16;;;;-50
2021/11/09 02:45:45;;;;;;;2.95;2.39;;;;;;;18.64;57.55;101392.81;;;;-56
2021/11/09 02:48:46;;;;;;;2.53;2.33;;;;;;;18.64;57.55;101391.75;;;;-56
2021/11/09 02:51:45;;;;;;;2.60;2.39;;;;;;;18.62;57.43;101396.50;;;;-56
2021/11/09 02:54:45;;;;;;;2.36;2.11;;;;;;;18.61;57.54;101393.78;;;;-57
2021/11/09 03:02:46;;;;;;;2.51;2.31;;;;;;;18.59;57.53;101393.97;;;;-50
2021/11/09 03:05:48;;;;;;;2.23;2.03;;;;;;;18.59;57.50;101394.38;;;;-50
2021/11/09 03:08:46;;;;;;;2.49;2.29;;;;;;;18.56;57.50;101396.67;;;;-50
2021/11/09 03:45:39;;;;;;;2.63;2.41;;;;;;;18.48;57.48;101380.16;;;;-57
2021/11/09 03:48:38;;;;;;;2.47;2.27;;;;;;;18.49;57.51;101378.94;;;;-58
2021/11/09 03:51:38;;;;;;;2.49;2.28;;;;;;;18.46;57.51;101376.37;;;;-56
2021/11/09 03:54:39;;;;;;;2.85;2.30;;;;;;;18.47;57.57;101380.62;;;;-57
2021/11/09 03:57:43;;;;;;;2.29;2.09;;;;;;;18.46;57.52;101380.02;;;;-56
2021/11/09 04:00:43;;;;;;;2.31;2.11;;;;;;;18.46;57.55;101386.59;;;;-55
2021/11/09 04:03:50;;;;;;;2.39;1.84;;;;;;;18.46;57.51;101391.05;;;;-50
2021/11/09 04:06:41;;;;;;;2.28;2.08;;;;;;;18.45;57.51;101397.78;;;;-50
2021/11/09 04:10:30;;;;;;;2.43;2.17;;;;;;;18.44;57.49;101394.41;;;;-50
2021/11/09 04:12:51;;;;;;;2.46;2.26;;;;;;;18.43;57.48;101393.27;;;;-50
2021/11/09 04:15:50;;;;;;;2.27;2.08;;;;;;;18.42;57.43;101394.11;;;;-50
2021/11/09 04:18:50;;;;;;;2.33;2.13;;;;;;;18.42;57.53;101396.06;;;;-49
2021/11/09 04:21:53;;;;;;;2.81;2.10;;;;;;;18.42;57.51;101393.78;;;;-50
2021/11/09 04:39:49;;;;;;;2.47;2.27;;;;;;;18.38;57.38;101400.75;;;;-50
2021/11/09 04:43:52;;;;;;;2.33;2.13;;;;;;;18.38;57.38;101402.86;;;;-50
2021/11/09 04:47:59;;;;;;;2.44;2.01;;;;;;;18.37;57.41;101398.95;;;;-50
2021/11/09 04:50:57;;;;;;;2.21;2.01;;;;;;;18.37;57.39;101401.63;;;;-50
2021/11/09 04:53:47;;;;;;;2.09;1.97;;;;;;;18.36;57.39;101403.85;;;;-50
2021/11/09 05:02:42;;;;;;;2.68;2.14;;;;;;;18.35;57.33;101414.55;;;;-50
2021/11/09 05:08:35;;;;;;;2.11;1.95;;;;;;;18.33;57.31;101415.39;;;;-56
2021/11/09 05:11:22;;;;;;;2.33;2.13;;;;;;;18.33;57.38;101421.80;;;;-57
2021/11/09 05:14:22;;;;;;;2.24;2.04;;;;;;;18.31;57.37;101422.16;;;;-57
2021/11/09 05:27:31;;;;;;;2.15;1.91;;;;;;;18.30;57.36;101434.13;;;;-49
2021/11/09 05:30:31;;;;;;;2.23;2.03;;;;;;;18.28;57.38;101440.20;;;;-49
2021/11/09 05:38:48;;;;;;;3.08;2.46;;;;;;;18.28;57.27;101441.17;;;;-50
2021/11/09 05:41:35;;;;;;;2.18;1.98;;;;;;;18.28;57.33;101444.22;;;;-50
2021/11/09 05:44:31;;;;;;;2.36;2.14;;;;;;;18.28;57.36;101446.77;;;;-49
2021/11/09 05:47:31;;;;;;;2.09;1.90;;;;;;;18.28;57.34;101450.87;;;;-56
2021/11/09 05:50:31;;;;;;;2.01;1.91;;;;;;;18.29;57.39;101458.30;;;;-56
2021/11/09 05:53:33;;;;;;;8.50;2.50;;;;;;;18.24;54.95;101464.06;;;;-59
2021/11/09 05:56:31;;;;;;;5.29;3.65;;;;;;;17.81;48.61;101470.63;;;;-60
2021/11/09 05:59:31;;;;;;;7.67;4.05;;;;;;;17.55;46.95;101475.17;;;;-59
2021/11/09 06:02:31;;;;;;;6.04;4.45;;;;;;;17.35;46.78;101477.43;;;;-49
2021/11/09 06:05:31;;;;;;;4.63;3.14;;;;;;;17.54;49.11;101481.98;;;;-51
2021/11/09 06:08:31;;;;;;;5.35;3.14;;;;;;;17.64;49.91;101486.19;;;;-51
2021/11/09 06:11:31;;;;;;;3.85;3.03;;;;;;;17.73;50.91;101488.30;;;;-51
2021/11/09 06:14:31;;;;;;;3.85;3.07;;;;;;;17.80;51.84;101492.72;;;;-52
2021/11/09 06:17:31;;;;;;;3.50;2.81;;;;;;;17.85;52.43;101492.67;;;;-56
2021/11/09 06:20:31;;;;;;;3.07;2.77;;;;;;;17.89;52.88;101497.81;;;;-57
2021/11/09 06:23:31;;;;;;;6.06;2.75;;;;;;;17.92;53.08;101497.89;;;;-51
2021/11/09 06:26:31;;;;;;;3.28;2.62;;;;;;;17.95;53.37;101506.27;;;;-58
2021/11/09 06:29:31;;;;;;;4.03;2.71;;;;;;;17.98;53.59;101507.64;;;;-58
2021/11/09 06:32:31;;;;;;;3.17;2.72;;;;;;;18.01;53.75;101513.30;;;;-56
2021/11/09 06:35:31;;;;;;;3.53;2.78;;;;;;;18.03;53.88;101512.71;;;;-56
2021/11/09 06:38:31;;;;;;;3.17;2.47;;;;;;;18.05;54.03;101519.42;;;;-56
2021/11/09 06:41:31;;;;;;;4.09;2.60;;;;;;;18.06;54.14;101521.19;;;;-56
2021/11/09 06:44:31;;;;;;;2.64;2.43;;;;;;;18.08;54.28;101524.16;;;;-56
2021/11/09 06:47:31;;;;;;;2.81;2.51;;;;;;;18.09;54.37;101520.20;;;;-50
2021/11/09 06:50:31;;;;;;;2.56;2.36;;;;;;;18.10;54.47;101529.33;;;;-51
2021/11/09 06:53:31;;;;;;;4.51;2.61;;;;;;;18.11;54.51;101529.19;;;;-51
2021/11/09 06:56:31;;;;;;;3.13;2.44;;;;;;;18.11;54.60;101528.94;;;;-56
2021/11/09 06:59:31;;;;;;;3.23;2.38;;;;;;;18.12;54.67;101531.09;;;;-49
2021/11/09 07:02:33;;;;;;;2.67;2.46;;;;;;;18.13;54.70;101537.92;;;;-56
2021/11/09 07:05:31;;;;;;;2.69;2.41;;;;;;;18.13;54.82;101532.00;;;;-49
2021/11/09 07:08:31;;;;;;;2.65;2.44;;;;;;;18.13;54.87;101534.77;;;;-49
2021/11/09 07:11:31;;;;;;;2.59;2.39;;;;;;;18.14;54.89;101539.50;;;;-49
2021/11/09 07:14:31;;;;;;;2.60;2.40;;;;;;;18.15;54.94;101539.59;;;;-58
2021/11/09 07:17:31;;;;;;;2.79;2.37;;;;;;;18.15;54.95;101541.55;;;;-51
2021/11/09 07:20:31;;;;;;;2.89;2.31;;;;;;;18.14;55.00;101545.42;;;;-49
2021/11/09 07:23:31;;;;;;;2.43;2.23;;;;;;;18.14;55.02;101548.44;;;;-49
2021/11/09 07:26:31;;;;;;;3.23;2.37;;;;;;;18.14;55.08;101544.45;;;;-57
2021/11/09 07:29:31;;;;;;;4.89;2.45;;;;;;;18.15;55.26;101552.91;;;;-50
2021/11/09 07:32:31;;;;;;;4.71;2.51;;;;;;;18.16;55.16;101555.47;;;;-60
2021/11/09 07:35:31;;;;;;;3.21;2.40;;;;;;;18.15;55.19;101561.92;;;;-60
2021/11/09 07:38:31;;;;;;;3.31;2.32;;;;;;;18.16;55.15;101569.14;;;;-60
2021/11/09 07:41:31;;;;;;;4.05;2.35;;;;;;;18.16;55.14;101572.39;;;;-50
2021/11/09 07:44:31;;;;;;;2.53;2.20;;;;;;;18.15;55.18;101578.06;;;;-50
2021/11/09 07:47:31;;;;;;;3.64;2.24;;;;;;;18.15;55.18;101574.41;;;;-50
2021/11/09 07:50:31;;;;;;;3.31;2.45;;;;;;;18.15;55.18;101572.55;;;;-60
2021/11/09 07:53:35;;;;;;;3.48;2.31;;;;;;;18.15;55.19;101572.79;;;;-61
2021/11/09 07:56:33;;;;;;;3.28;2.61;;;;;;;18.15;55.26;101576.59;;;;-61
2021/11/09 07:59:36;;;;;;;3.09;2.33;;;;;;;18.15;55.26;101575.30;;;;-61
2021/11/09 08:02:43;;;;;;;2.47;2.09;;;;;;;18.15;55.28;101575.70;;;;-46
2021/11/09 08:05:36;;;;;;;3.13;2.57;;;;;;;18.15;55.25;101577.23;;;;-45
2021/11/09 08:08:36;;;;;;;2.48;2.28;;;;;;;18.14;55.25;101583.89;;;;-50
2021/11/09 08:11:35;;;;;;;2.57;2.27;;;;;;;18.14;55.28;101583.56;;;;-50
2021/11/09 08:14:31;;;;;;;2.27;2.05;;;;;;;18.14;55.29;101582.19;;;;-50
2021/11/09 08:17:31;;;;;;;2.42;2.11;;;;;;;18.14;55.32;101582.66;;;;-50
2021/11/09 08:20:31;;;;;;;3.73;2.64;;;;;;;18.14;55.34;101582.91;;;;-60
2021/11/09 08:23:31;;;;;;;3.33;2.18;;;;;;;18.13;55.34;101582.63;;;;-60
2021/11/09 08:26:31;;;;;;;3.15;2.43;;;;;;;18.13;55.34;101584.65;;;;-61
2021/11/09 08:29:59;;;;;;;2.21;2.01;;;;;;;18.12;55.35;101581.47;;;;-47
2021/11/09 08:33:31;;;;;;;2.30;2.10;;;;;;;18.12;55.39;101579.52;;;;-52
2021/11/09 08:36:31;;;;;;;2.49;2.24;;;;;;;18.11;55.39;101575.59;;;;-52
2021/11/09 08:39:36;;;;;;;2.69;2.37;;;;;;;18.12;55.45;101573.36;;;;-52
2021/11/09 08:42:33;;;;;;;2.69;2.20;;;;;;;18.11;55.46;101572.26;;;;-52
2021/11/09 08:45:39;;;;;;;2.51;2.25;;;;;;;18.11;55.52;101567.80;;;;-52
2021/11/09 08:48:34;;;;;;;2.31;2.11;;;;;;;18.10;55.50;101565.51;;;;-52
2021/11/09 08:51:32;;;;;;;2.75;2.28;;;;;;;18.12;55.58;101568.65;;;;-53
2021/11/09 08:54:33;;;;;;;2.79;2.22;;;;;;;18.13;55.65;101571.09;;;;-56
2021/11/09 08:58:13;;;;;;;3.15;2.14;;;;;;;18.15;55.99;101570.10;;;;-57
2021/11/09 09:06:31;;;;;;;3.20;2.10;;;;;;;18.28;56.50;101561.10;;;;-59
2021/11/09 09:09:31;;;;;;;2.54;2.28;;;;;;;18.34;56.68;101561.56;;;;-59
2021/11/09 09:12:32;;;;;;;3.60;2.29;;;;;;;18.41;56.93;101557.77;;;;-49
2021/11/09 09:15:31;;;;;;;4.27;2.13;;;;;;;18.45;56.87;101553.05;;;;-49
2021/11/09 09:18:31;;;;;;;2.93;2.17;;;;;;;18.50;56.87;101549.45;;;;-48
2021/11/09 09:21:35;;;;;;;5.12;2.25;;;;;;;18.56;56.78;101545.80;;;;-48
2021/11/09 09:24:40;;;;;;;4.21;2.11;;;;;;;18.60;56.81;101543.39;;;;-50
2021/11/09 09:27:47;;;;;;;4.11;2.07;;;;;;;18.65;56.82;101543.52;;;;-51
2021/11/09 09:30:37;;;;;;;2.35;2.14;;;;;;;18.69;56.86;101546.79;;;;-49
2021/11/09 09:52:52;;;;;;;2.86;2.13;;;;;;;19.00;57.11;101558.69;;;;-47
2021/11/09 09:55:39;;;;;;;2.35;2.15;;;;;;;19.04;57.05;101556.19;;;;-48
2021/11/09 09:58:31;;;;;;;2.23;1.90;;;;;;;19.08;56.87;101549.55;;;;-48
2021/11/09 10:01:31;;;;;;;2.69;1.98;;;;;;;19.12;56.89;101547.46;;;;-47
2021/11/09 10:04:31;;;;;;;2.55;1.89;;;;;;;19.14;56.96;101541.91;;;;-49
2021/11/09 10:07:32;;;;;;;2.87;2.19;;;;;;;19.18;56.86;101541.84;;;;-51
2021/11/09 10:10:33;;;;;;;2.18;1.83;;;;;;;19.22;56.95;101539.67;;;;-57
2021/11/09 10:13:31;;;;;;;2.09;1.83;;;;;;;19.24;56.82;101536.80;;;;-58
2021/11/09 10:16:31;;;;;;;2.17;1.90;;;;;;;19.27;57.09;101536.05;;;;-51
2021/11/09 10:19:31;;;;;;;2.49;1.89;;;;;;;19.29;56.67;101531.46;;;;-56
2021/11/09 10:22:31;;;;;;;2.91;1.81;;;;;;;19.32;56.81;101532.61;;;;-56
2021/11/09 10:25:31;;;;;;;2.10;1.90;;;;;;;19.34;56.85;101527.30;;;;-60
2021/11/09 10:28:31;;;;;;;2.04;1.85;;;;;;;19.38;56.84;101532.84;;;;-57
2021/11/09 10:31:31;;;;;;;2.20;2.00;;;;;;;19.38;56.43;101529.34;;;;-57
2021/11/09 10:34:31;;;;;;;2.01;1.83;;;;;;;19.41;56.44;101531.75;;;;-57
2021/11/09 10:37:31;;;;;;;2.09;1.88;;;;;;;19.42;56.33;101522.36;;;;-57
2021/11/09 10:40:31;;;;;;;2.34;1.90;;;;;;;19.44;56.18;101521.08;;;;-49
2021/11/09 10:43:32;;;;;;;2.21;1.85;;;;;;;19.45;56.16;101514.45;;;;-49
2021/11/09 10:46:31;;;;;;;1.99;1.80;;;;;;;19.46;56.07;101514.78;;;;-57
2021/11/09 10:49:31;;;;;;;2.63;1.83;;;;;;;19.48;56.04;101517.35;;;;-57
2021/11/09 10:52:31;;;;;;;6.36;1.80;;;;;;;19.49;56.02;101514.14;;;;-57
2021/11/09 10:55:36;;;;;;;2.10;1.90;;;;;;;19.51;55.98;101510.77;;;;-58
2021/11/09 10:58:43;;;;;;;1.87;1.70;;;;;;;19.52;55.96;101511.19;;;;-57
2021/11/09 11:04:31;;;;;;;1.93;1.72;;;;;;;19.55;55.85;101501.84;;;;-46
2021/11/09 11:07:31;;;;;;;3.55;1.90;;;;;;;19.60;56.17;101497.80;;;;-51
2021/11/09 11:10:32;;;;;;;2.31;1.91;;;;;;;19.61;56.00;101492.71;;;;-52
2021/11/09 11:13:31;;;;;;;4.84;2.10;;;;;;;19.62;55.09;101491.91;;;;-53
2021/11/09 11:16:31;;;;;;;2.40;2.01;;;;;;;19.65;55.46;101485.00;;;;-51
2021/11/09 11:19:31;;;;;;;3.01;1.80;;;;;;;19.68;55.63;101479.67;;;;-50
2021/11/09 11:22:31;;;;;;;3.36;1.79;;;;;;;19.71;55.86;101482.94;;;;-54
2021/11/09 11:25:31;;;;;;;3.37;2.09;;;;;;;19.75;55.91;101476.27;;;;-52
2021/11/09 11:28:31;;;;;;;2.51;1.99;;;;;;;19.78;55.97;101468.54;;;;-54
2021/11/09 11:31:31;;;;;;;2.19;1.77;;;;;;;19.81;56.02;101463.14;;;;-53
2021/11/09 11:34:31;;;;;;;2.49;1.73;;;;;;;19.83;56.00;101465.87;;;;-50
2021/11/09 11:37:31;;;;;;;1.83;1.73;;;;;;;19.84;55.99;101462.48;;;;-50
2021/11/09 11:40:31;;;;;;;3.52;1.79;;;;;;;19.87;56.02;101462.12;;;;-51
2021/11/09 11:43:31;;;;;;;2.72;1.73;;;;;;;19.89;56.03;101451.27;;;;-49
2021/11/09 11:46:31;;;;;;;1.96;1.79;;;;;;;19.90;56.00;101450.73;;;;-47
2021/11/09 11:49:31;;;;;;;3.70;1.93;;;;;;;19.92;56.10;101451.16;;;;-51
2021/11/09 11:52:31;;;;;;;1.99;1.80;;;;;;;19.94;55.98;101447.70;;;;-56
2021/11/09 11:55:31;;;;;;;2.11;1.69;;;;;;;19.96;56.10;101449.04;;;;-55
2021/11/09 11:58:31;;;;;;;2.03;1.72;;;;;;;19.98;56.16;101441.92;;;;-53
2021/11/09 12:01:31;;;;;;;2.35;1.79;;;;;;;20.00;55.94;101438.62;;;;-53
2021/11/09 12:04:31;;;;;;;2.58;1.73;;;;;;;20.01;56.04;101442.33;;;;-53
2021/11/09 12:07:31;;;;;;;3.89;1.74;;;;;;;19.99;55.80;101439.68;;;;-47
2021/11/09 12:10:31;;;;;;;3.43;1.65;;;;;;;19.98;55.79;101439.27;;;;-53
2021/11/09 12:13:31;;;;;;;3.83;1.74;;;;;;;19.98;55.75;101432.00;;;;-53
2021/11/09 12:16:31;;;;;;;3.07;1.74;;;;;;;20.01;55.86;101428.66;;;;-56
2021/11/09 12:19:31;;;;;;;3.74;1.67;;;;;;;20.02;56.00;101423.53;;;;-46
2021/11/09 12:23:31;;;;;;;2.33;1.75;;;;;;;20.03;55.99;101424.80;;;;-47
2021/11/09 12:26:31;;;;;;;1.81;1.60;;;;;;;20.05;56.09;101420.27;;;;-56
2021/11/09 12:29:31;;;;;;;3.57;1.73;;;;;;;20.06;55.88;101413.52;;;;-59
2021/11/09 12:32:31;;;;;;;1.87;1.68;;;;;;;20.06;55.83;101410.02;;;;-51
2021/11/09 12:35:31;;;;;;;2.99;1.80;;;;;;;20.07;55.16;101409.33;;;;-51
2021/11/09 12:38:31;;;;;;;3.27;1.66;;;;;;;20.07;54.77;101410.06;;;;-52
2021/11/09 12:41:31;;;;;;;2.87;1.80;;;;;;;20.07;54.83;101409.58;;;;-54
2021/11/09 12:44:31;;;;;;;2.36;1.84;;;;;;;20.08;54.49;101405.50;;;;-51
2021/11/09 12:47:32;;;;;;;4.19;2.08;;;;;;;20.10;54.77;101399.93;;;;-52
2021/11/09 12:50:31;;;;;;;3.91;1.89;;;;;;;20.12;54.76;101399.64;;;;-52
2021/11/09 12:53:31;;;;;;;2.25;1.90;;;;;;;20.12;55.05;101393.54;;;;-52
2021/11/09 12:56:32;;;;;;;2.60;1.64;;;;;;;20.13;55.17;101397.23;;;;-52
2021/11/09 12:59:34;;;;;;;2.75;2.00;;;;;;;20.14;55.19;101395.61;;;;-47
2021/11/09 13:02:39;;;;;;;2.51;1.91;;;;;;;20.16;55.14;101396.37;;;;-50
2021/11/09 13:05:31;;;;;;;3.59;1.85;;;;;;;20.16;55.24;101395.81;;;;-50
2021/11/09 13:08:41;;;;;;;2.65;2.07;;;;;;;20.17;55.16;101393.48;;;;-53
2021/11/09 13:11:32;;;;;;;5.17;1.83;;;;;;;20.17;55.23;101392.43;;;;-62
2021/11/09 13:14:31;;;;;;;2.61;1.83;;;;;;;20.18;55.15;101388.94;;;;-60
2021/11/09 13:17:33;;;;;;;2.52;1.65;;;;;;;20.19;55.17;101383.08;;;;-60
2021/11/09 13:20:38;;;;;;;3.05;1.73;;;;;;;20.19;55.15;101381.56;;;;-62
2021/11/09 13:23:31;;;;;;;3.15;1.91;;;;;;;20.19;55.20;101380.63;;;;-60
2021/11/09 13:26:31;;;;;;;2.11;1.73;;;;;;;20.19;55.17;101370.17;;;;-46
2021/11/09 13:29:31;;;;;;;2.30;1.90;;;;;;;20.21;55.15;101371.55;;;;-59
2021/11/09 13:32:31;;;;;;;2.04;1.72;;;;;;;20.21;55.27;101366.27;;;;-61
2021/11/09 13:35:31;;;;;;;1.73;1.60;;;;;;;20.22;55.20;101367.84;;;;-60
2021/11/09 13:38:33;;;;;;;6.03;1.89;;;;;;;20.20;55.06;101361.45;;;;-59
2021/11/09 13:41:34;;;;;;;4.61;2.33;;;;;;;20.22;54.98;101363.94;;;;-52
2021/11/09 13:44:31;;;;;;;3.17;2.07;;;;;;;20.22;55.01;101360.52;;;;-52
2021/11/09 13:47:31;;;;;;;4.53;2.08;;;;;;;20.21;55.12;101359.02;;;;-51
2021/11/09 13:50:31;;;;;;;3.63;1.90;;;;;;;20.19;55.15;101363.41;;;;-51
2021/11/09 13:57:31;;;;;;;3.14;2.25;;;;;;;20.17;55.19;101359.44;;;;-51
2021/11/09 14:00:33;;;;;;;3.61;1.97;;;;;;;20.15;55.17;101360.25;;;;-51
2021/11/09 14:18:31;;;;;;;2.49;1.85;;;;;;;20.06;55.13;101373.48;;;;-52
2021/11/09 14:21:31;;;;;;;2.54;1.82;;;;;;;20.05;55.25;101373.48;;;;-51
2021/11/09 14:24:31;;;;;;;3.25;2.02;;;;;;;20.03;55.21;101365.23;;;;-51
2021/11/09 14:27:31;;;;;;;2.77;1.90;;;;;;;20.02;55.16;101366.41;;;;-51
2021/11/09 14:30:31;;;;;;;2.80;1.89;;;;;;;20.00;55.25;101364.18;;;;-52
2021/11/09 14:49:45;;;;;;;2.43;1.81;;;;;;;19.91;55.34;101344.25;;;;-61
2021/11/09 14:52:34;;;;;;;2.87;1.85;;;;;;;19.89;55.38;101330.47;;;;-60
2021/11/09 14:55:39;;;;;;;2.11;1.74;;;;;;;19.88;55.40;101325.25;;;;-62
2021/11/09 14:58:31;;;;;;;2.31;1.79;;;;;;;19.86;55.37;101318.76;;;;-52
2021/11/09 15:01:33;;;;;;;2.07;1.83;;;;;;;19.84;55.43;101318.27;;;;-51
2021/11/09 15:04:37;;;;;;;2.92;1.95;;;;;;;19.82;55.49;101327.50;;;;-59
2021/11/09 15:07:36;;;;;;;2.55;1.73;;;;;;;19.81;55.47;101325.59;;;;-61
2021/11/09 15:10:40;;;;;;;2.09;1.67;;;;;;;19.79;55.46;101322.46;;;;-59
2021/11/09 15:13:52;;;;;;;1.90;1.69;;;;;;;19.77;55.44;101321.94;;;;-59
2021/11/09 15:25:58;;;;;;;1.80;1.55;;;;;;;19.70;55.53;101333.45;;;;-60
2021/11/09 15:28:32;;;;;;;2.25;1.69;;;;;;;19.69;55.54;101338.34;;;;-59
2021/11/09 15:31:32;;;;;;;2.32;1.70;;;;;;;19.67;55.54;101335.08;;;;-51
2021/11/09 15:34:47;;;;;;;2.04;1.60;;;;;;;19.65;55.46;101330.12;;;;-51
2021/11/09 15:37:34;;;;;;;1.98;1.71;;;;;;;19.63;55.63;101327.65;;;;-52
2021/11/09 15:40:31;;;;;;;2.17;1.71;;;;;;;19.61;55.70;101325.90;;;;-51
2021/11/09 15:43:33;;;;;;;1.86;1.70;;;;;;;19.59;55.76;101318.63;;;;-51
2021/11/09 15:46:31;;;;;;;1.91;1.68;;;;;;;19.57;55.69;101318.21;;;;-51
2021/11/09 15:49:31;;;;;;;1.85;1.64;;;;;;;19.55;55.67;101315.48;;;;-51
2021/11/09 15:52:31;;;;;;;1.71;1.60;;;;;;;19.54;55.85;101313.34;;;;-51
2021/11/09 15:55:31;;;;;;;2.81;1.80;;;;;;;19.52;55.80;101308.34;;;;-51
2021/11/09 15:58:31;;;;;;;1.98;1.73;;;;;;;19.50;55.74;101310.08;;;;-51
2021/11/09 16:17:31;;;;;;;1.80;1.65;;;;;;;19.44;56.02;101297.28;;;;-51
2021/11/09 16:20:31;;;;;;;1.92;1.71;;;;;;;19.44;55.97;101301.50;;;;-51
2021/11/09 16:23:31;;;;;;;2.15;1.73;;;;;;;19.43;55.99;101305.32;;;;-50
2021/11/09 16:26:31;;;;;;;2.57;1.44;;;;;;;19.42;55.98;101305.13;;;;-52
2021/11/09 16:32:31;;;;;;;2.19;1.75;;;;;;;19.40;55.86;101308.53;;;;-47
2021/11/09 16:35:34;;;;;;;2.25;1.76;;;;;;;19.39;55.92;101312.31;;;;-47
2021/11/09 16:43:35;;;;;;;2.73;1.63;;;;;;;19.37;56.23;101326.98;;;;-46
2021/11/09 16:46:37;;;;;;;6.00;1.76;;;;;;;19.38;56.01;101330.84;;;;-45
2021/11/09 16:49:43;;;;;;;3.64;1.73;;;;;;;19.35;55.96;101325.23;;;;-45
2021/11/09 16:52:31;;;;;;;3.57;1.65;;;;;;;19.34;56.02;101329.13;;;;-45
2021/11/09 16:58:46;;;;;;;3.29;1.59;;;;;;;19.33;56.10;101329.41;;;;-52
2021/11/09 17:02:26;;;;;;;2.31;1.64;;;;;;;19.32;56.12;101320.39;;;;-52
2021/11/09 17:13:56;;;;;;;2.81;1.70;;;;;;;19.29;56.04;101340.22;;;;-48
2021/11/09 18:05:27;;;;;;;5.03;2.53;;;;;;;19.59;54.60;101368.87;;;;-59
2021/11/09 18:12:27;;;;;;;5.45;2.62;;;;;;;19.62;54.65;101365.05;;;;-47
2021/11/09 18:14:59;;;;;;;5.14;3.10;;;;;;;19.72;54.88;101365.94;;;;-46
2021/11/09 18:22:34;;;;;;;4.90;2.99;;;;;;;19.85;55.32;101375.05;;;;-45
2021/11/09 18:25:31;;;;;;;5.44;3.01;;;;;;;19.88;55.64;101376.02;;;;-47
2021/11/09 18:28:31;;;;;;;4.92;3.17;;;;;;;19.91;55.52;101363.05;;;;-53
2021/11/09 18:31:31;;;;;;;5.11;3.13;;;;;;;19.93;55.61;101365.61;;;;-54
2021/11/09 18:34:32;;;;;;;5.39;2.91;;;;;;;19.97;55.60;101364.63;;;;-57
2021/11/09 18:37:31;;;;;;;5.25;2.95;;;;;;;19.99;55.64;101353.11;;;;-58
2021/11/09 18:40:31;;;;;;;3.77;2.69;;;;;;;20.02;55.66;101336.63;;;;-58
2021/11/09 18:43:32;;;;;;;4.35;3.03;;;;;;;20.04;55.44;101330.65;;;;-52
2021/11/09 18:46:31;;;;;;;6.11;3.17;;;;;;;20.04;55.35;101331.95;;;;-52
2021/11/09 18:49:31;;;;;;;4.10;2.81;;;;;;;20.04;55.29;101336.67;;;;-51
2021/11/09 18:52:31;;;;;;;4.26;2.86;;;;;;;20.04;55.23;101343.75;;;;-51
2021/11/09 18:55:31;;;;;;;3.61;2.92;;;;;;;20.03;55.28;101340.66;;;;-51
2021/11/09 18:58:31;;;;;;;4.06;2.88;;;;;;;20.04;55.18;101342.53;;;;-46
2021/11/09 19:01:31;;;;;;;3.96;2.90;;;;;;;20.04;55.13;101347.25;;;;-50
2021/11/09 19:04:31;;;;;;;3.53;2.96;;;;;;;20.04;55.12;101348.06;;;;-52
2021/11/09 19:07:31;;;;;;;4.20;2.90;;;;;;;20.03;55.11;101346.34;;;;-52
2021/11/09 19:10:31;;;;;;;3.53;2.66;;;;;;;20.04;55.11;101348.47;;;;-60
2021/11/09 19:13:31;;;;;;;3.37;2.80;;;;;;;20.04;55.08;101358.23;;;;-61
2021/11/09 19:16:31;;;;;;;3.92;3.09;;;;;;;20.05;55.08;101369.41;;;;-47
2021/11/09 19:19:31;;;;;;;3.83;3.11;;;;;;;20.04;55.05;101375.16;;;;-46
2021/11/09 19:22:31;;;;;;;4.03;3.08;;;;;;;20.04;55.07;101363.77;;;;-61
2021/11/09 19:25:31;;;;;;;6.75;6.10;;;;;;;20.04;54.98;101366.78;;;;-61
2021/11/09 19:28:32;;;;;;;4.03;3.03;;;;;;;20.04;55.01;101349.36;;;;-60
2021/11/09 19:31:31;;;;;;;4.29;2.81;;;;;;;20.03;54.88;101328.69;;;;-50
2021/11/09 19:34:32;;;;;;;3.72;2.89;;;;;;;20.02;54.96;101306.69;;;;-51
2021/11/09 19:37:31;;;;;;;3.15;2.85;;;;;;;20.03;55.00;101305.26;;;;-50
2021/11/09 19:40:31;;;;;;;3.77;3.07;;;;;;;20.02;54.99;101309.45;;;;-52
2021/11/09 19:43:31;;;;;;;3.72;2.87;;;;;;;20.02;55.01;101315.48;;;;-46
2021/11/09 19:46:31;;;;;;;4.03;2.97;;;;;;;20.01;54.98;101322.80;;;;-46
2021/11/09 19:49:36;;;;;;;3.87;3.03;;;;;;;20.00;54.88;101336.76;;;;-47
2021/11/09 19:52:31;;;;;;;4.27;3.20;;;;;;;19.99;54.93;101333.09;;;;-47
2021/11/09 19:55:31;;;;;;;4.17;2.87;;;;;;;19.97;54.98;101331.84;;;;-47
2021/11/09 19:58:31;;;;;;;5.07;3.33;;;;;;;19.96;54.98;101334.81;;;;-46
2021/11/09 20:01:32;;;;;;;3.94;3.04;;;;;;;19.95;54.93;101328.38;;;;-47
2021/11/09 20:04:31;;;;;;;4.37;2.99;;;;;;;19.93;55.00;101339.16;;;;-46
2021/11/09 20:07:33;;;;;;;4.23;3.28;;;;;;;19.93;54.98;101344.29;;;;-47
2021/11/09 20:10:32;;;;;;;4.21;3.20;;;;;;;19.91;55.03;101352.38;;;;-46
2021/11/09 20:13:33;;;;;;;3.69;2.97;;;;;;;19.88;54.96;101342.17;;;;-46
2021/11/09 20:16:31;;;;;;;4.29;3.40;;;;;;;19.87;55.08;101343.28;;;;-46
2021/11/09 20:19:31;;;;;;;4.31;3.23;;;;;;;19.86;55.05;101343.19;;;;-46
2021/11/09 20:22:31;;;;;;;4.48;3.35;;;;;;;19.84;55.20;101332.02;;;;-47
2021/11/09 20:25:31;;;;;;;4.82;3.58;;;;;;;19.83;55.02;101319.37;;;;-46
2021/11/09 20:28:31;;;;;;;4.09;3.21;;;;;;;19.81;55.09;101332.75;;;;-46
2021/11/09 20:31:32;;;;;;;4.44;3.53;;;;;;;19.80;55.10;101344.63;;;;-46
2021/11/09 20:34:31;;;;;;;5.47;4.43;;;;;;;19.79;55.25;101339.22;;;;-47
2021/11/09 20:37:31;;;;;;;3.92;3.47;;;;;;;19.78;55.29;101337.67;;;;-42
2021/11/09 20:40:31;;;;;;;7.39;4.11;;;;;;;19.79;55.15;101337.84;;;;-57
2021/11/09 20:43:31;;;;;;;7.71;3.15;;;;;;;19.79;55.17;101340.52;;;;-57
2021/11/09 20:46:31;;;;;;;9.18;4.35;;;;;;;19.79;55.39;101342.95;;;;-58
2021/11/09 20:49:31;;;;;;;5.09;2.90;;;;;;;19.78;55.14;101356.30;;;;-45
2021/11/09 20:52:32;;;;;;;4.74;2.89;;;;;;;19.78;55.36;101343.37;;;;-46
2021/11/09 20:55:33;;;;;;;3.71;3.07;;;;;;;19.78;55.35;101332.63;;;;-49
2021/11/09 20:58:31;;;;;;;5.67;3.32;;;;;;;19.76;55.25;101331.77;;;;-54
2021/11/09 21:01:32;;;;;;;5.25;3.59;;;;;;;19.75;55.39;101320.52;;;;-54
2021/11/09 21:04:31;;;;;;;6.43;5.84;;;;;;;19.75;55.45;101321.90;;;;-52
2021/11/09 21:07:31;;;;;;;15.90;14.57;;;;;;;19.75;55.38;101324.83;;;;-49
2021/11/09 21:10:32;;;;;;;17.68;15.95;;;;;;;19.75;55.32;101325.64;;;;-49
2021/11/09 21:14:02;;;;;;;7.75;3.19;;;;;;;19.73;55.22;101333.16;;;;-54
2021/11/09 21:19:31;;;;;;;4.73;3.05;;;;;;;19.71;55.27;101332.88;;;;-51
2021/11/09 21:22:31;;;;;;;4.06;3.20;;;;;;;19.70;55.27;101339.30;;;;-52
2021/11/09 21:25:31;;;;;;;3.81;3.01;;;;;;;19.69;55.50;101339.52;;;;-50
2021/11/09 21:28:35;;;;;;;3.78;3.00;;;;;;;19.71;55.56;101334.34;;;;-48
2021/11/09 21:31:39;;;;;;;4.27;3.05;;;;;;;19.71;55.46;101331.74;;;;-45
2021/11/09 21:37:39;;;;;;;4.64;2.99;;;;;;;19.68;55.36;101332.88;;;;-47
2021/11/09 21:40:36;;;;;;;4.36;3.07;;;;;;;19.67;55.43;101329.35;;;;-46
2021/11/09 21:43:31;;;;;;;3.72;3.08;;;;;;;19.67;55.40;101334.97;;;;-49
2021/11/09 21:46:31;;;;;;;3.57;2.90;;;;;;;19.66;55.58;101337.16;;;;-49
2021/11/09 21:49:31;;;;;;;3.72;3.07;;;;;;;19.66;55.62;101337.08;;;;-49
2021/11/09 21:52:31;;;;;;;3.36;2.90;;;;;;;19.65;55.47;101345.37;;;;-51
2021/11/09 21:55:31;;;;;;;5.39;3.10;;;;;;;19.63;55.69;101339.30;;;;-49